KHON

Huron Regional Airport

Huron, South Dakota, USA
METAR KHON 231608Z AUTO 30008KT 10SM OVC010 M10/M12 A3027 RMK AO2 T11001117 $
Observed Flight Rules
Feb-23 @ 16:08 UTC (28 minutes ago) Marginal Visual Flight Rules
Wind Visibility Clouds
300° at 8 knots 10 miles
  • Overcast at 1,000' AGL
Temperatures Readings
Current -10°C / 14°F
Dewpoint -12°C / 10°F
Humidity 85%
Altimeter 30.27" Hg
Pressure 1025 hPa
Elevation 390
METAR KHON 231608Z AUTO 30008KT 10SM OVC010 M10/M12 A3027 RMK AO2 T11001117 $
Observed Flight Rules
Feb-23 @ 16:08 UTC
(28 minutes ago)
MVFR
Wind Visibility
300° at 8 knots 10 miles
Clouds
  • Overcast at 1,000' AGL
Temperature Dewpoint
-10°C / 14°F -12°C / 10°F
Humidity Altimeter Pressure
85% 30.27" Hg 1025 hPa